Time;durP1;ratioP1;P1;durP2;ratioP2;P2;SDS_P1;SDS_P2;PMS_P1;PMS_P2;Temp;Humidity;BMP_temperature;BMP_pressure;BME280_temperature;BME280_humidity;BME280_pressure;Samples;Min_cycle;Max_cycle;Signal;HPM_P1;HPM_P2
2021/07/11 00:01:19;;;;;;;12.82;9.55;;;;;;;15.84;81.07;98181.89;1852747;77;21058;-73
2021/07/11 00:03:44;;;;;;;13.03;8.88;;;;;;;15.83;80.90;98183.02;1852884;77;20890;-74
2021/07/11 00:06:10;;;;;;;11.05;8.55;;;;;;;15.76;80.92;98176.05;1853009;77;20854;-74
2021/07/11 00:08:37;;;;;;;9.53;6.90;;;;;;;15.70;80.76;98180.00;1852776;77;20989;-73
2021/07/11 00:11:02;;;;;;;9.88;7.30;;;;;;;15.63;80.48;98180.18;1852685;77;21394;-74
2021/07/11 00:13:28;;;;;;;12.47;8.00;;;;;;;15.55;80.59;98176.78;1852934;77;20932;-75
2021/07/11 00:15:54;;;;;;;10.15;8.08;;;;;;;15.49;80.65;98175.55;1852720;77;20787;-75
2021/07/11 00:18:20;;;;;;;10.80;8.35;;;;;;;15.41;80.90;98171.37;1852927;77;20933;-73
2021/07/11 00:20:47;;;;;;;11.03;8.58;;;;;;;15.37;80.45;98175.27;1852721;77;21260;-74
2021/07/11 00:23:13;;;;;;;13.35;9.58;;;;;;;15.38;82.07;98180.16;1852475;77;21000;-75
2021/07/11 00:25:39;;;;;;;11.20;9.73;;;;;;;15.41;81.40;98178.20;1852818;77;20985;-74
2021/07/11 00:28:05;;;;;;;9.60;8.48;;;;;;;15.39;81.27;98168.16;1852571;77;20783;-73
2021/07/11 00:30:31;;;;;;;13.13;8.63;;;;;;;15.39;80.70;98165.42;1852772;77;20858;-74
2021/07/11 00:32:57;;;;;;;18.90;9.80;;;;;;;15.41;81.11;98167.28;1852645;77;21233;-73
2021/07/11 00:35:23;;;;;;;15.20;8.98;;;;;;;15.42;81.56;98162.06;1852968;77;20858;-73
2021/07/11 00:37:49;;;;;;;12.03;8.73;;;;;;;15.42;81.61;98157.97;1852539;77;20979;-74
2021/07/11 00:40:16;;;;;;;12.98;8.30;;;;;;;15.46;81.68;98154.86;1853028;77;20843;-73
2021/07/11 00:42:43;;;;;;;13.80;9.25;;;;;;;15.43;82.51;98154.13;1852617;77;20985;-74
2021/07/11 00:45:10;;;;;;;15.70;8.95;;;;;;;15.41;82.43;98159.09;1853059;77;21774;-75
2021/07/11 00:47:39;;;;;;;11.97;8.15;;;;;;;15.41;82.17;98161.82;1852483;77;21387;-73
2021/07/11 00:50:12;;;;;;;9.68;8.00;;;;;;;15.36;82.12;98154.54;1853038;77;20946;-75
2021/07/11 00:52:39;;;;;;;13.05;9.13;;;;;;;15.36;81.66;98154.54;1851316;77;20981;-74
2021/07/11 00:55:06;;;;;;;12.73;8.08;;;;;;;15.38;81.44;98152.33;1852854;77;21386;-74
2021/07/11 00:57:33;;;;;;;13.48;8.75;;;;;;;15.41;81.06;98153.63;1852436;77;21107;-74
2021/07/11 00:59:58;;;;;;;10.18;7.70;;;;;;;15.43;80.76;98152.20;1852726;77;21020;-74
2021/07/11 01:02:53;;;;;;;9.80;8.05;;;;;;;15.43;80.92;98153.56;1852557;77;20854;-74
2021/07/11 01:05:24;;;;;;;9.65;8.18;;;;;;;15.45;81.12;98150.52;1852901;77;20922;-75
2021/07/11 01:07:59;;;;;;;12.70;8.48;;;;;;;15.49;80.32;98144.15;1852728;77;20883;-73
2021/07/11 01:10:41;;;;;;;13.43;8.35;;;;;;;15.50;81.14;98146.31;1852880;77;21854;-75
2021/07/11 01:13:08;;;;;;;12.18;8.78;;;;;;;15.39;81.30;98147.12;1852458;77;20883;-75
2021/07/11 01:15:34;;;;;;;14.07;10.18;;;;;;;15.32;80.62;98139.91;1852680;77;20930;-74
2021/07/11 01:18:03;;;;;;;17.02;9.70;;;;;;;15.20;80.72;98141.78;1852610;77;20928;-74
2021/07/11 01:20:48;;;;;;;13.53;10.25;;;;;;;15.12;81.35;98143.06;1852854;77;21013;-75
2021/07/11 01:23:36;;;;;;;13.38;9.05;;;;;;;15.01;81.65;98144.41;1852598;77;21429;-74
2021/07/11 01:26:05;;;;;;;13.38;8.95;;;;;;;14.95;81.78;98147.26;1852665;77;21394;-74
2021/07/11 01:28:31;;;;;;;10.23;9.05;;;;;;;14.94;81.19;98151.07;1852781;77;21397;-74
2021/07/11 01:30:57;;;;;;;10.68;8.28;;;;;;;14.95;80.95;98151.34;1852747;77;21001;-74
2021/07/11 01:33:29;;;;;;;11.63;8.38;;;;;;;15.00;80.75;98150.42;1852926;77;21048;-74
2021/07/11 01:35:54;;;;;;;11.88;9.05;;;;;;;14.96;83.15;98145.34;1852716;77;21106;-74
2021/07/11 01:38:21;;;;;;;13.45;8.53;;;;;;;14.86;83.04;98142.80;1852898;77;21606;-74
2021/07/11 01:40:48;;;;;;;12.43;9.10;;;;;;;14.83;82.01;98145.58;1853704;77;21009;-75
2021/07/11 01:43:17;;;;;;;14.65;8.90;;;;;;;14.89;81.42;98148.47;1855586;77;21036;-75
2021/07/11 01:45:43;;;;;;;11.55;8.40;;;;;;;14.97;80.94;98142.86;1855430;77;21374;-74
2021/07/11 01:48:12;;;;;;;10.53;7.50;;;;;;;14.97;81.51;98141.48;1800220;77;21050;-74
2021/07/11 01:50:38;;;;;;;11.15;8.58;;;;;;;14.93;81.31;98148.66;1827861;77;20996;-75
2021/07/11 01:53:04;;;;;;;9.45;7.95;;;;;;;14.84;81.25;98148.56;1855593;77;21417;-75
2021/07/11 01:55:30;;;;;;;11.33;8.43;;;;;;;14.77;80.75;98146.79;1855647;77;20964;-74
2021/07/11 01:57:56;;;;;;;10.08;8.35;;;;;;;14.69;82.70;98147.50;1855545;77;20858;-74
2021/07/11 02:00:21;;;;;;;10.80;8.00;;;;;;;14.67;83.60;98152.45;1855962;77;21300;-75
2021/07/11 02:02:48;;;;;;;13.05;9.18;;;;;;;14.68;83.03;98154.87;1855474;77;20845;-75
2021/07/11 02:05:14;;;;;;;12.13;8.95;;;;;;;14.71;81.96;98153.48;1855891;77;20973;-74
2021/07/11 02:07:40;;;;;;;13.13;8.00;;;;;;;14.60;82.20;98152.84;1855489;77;20985;-74
2021/07/11 02:10:08;;;;;;;10.88;7.95;;;;;;;14.56;82.10;98151.84;1855885;77;20993;-75
2021/07/11 02:12:36;;;;;;;11.23;8.10;;;;;;;14.45;82.88;98151.80;1855797;77;21132;-75
2021/07/11 02:15:05;;;;;;;12.65;8.35;;;;;;;14.45;82.88;98151.80;1855745;77;20921;-74
2021/07/11 02:17:31;;;;;;;16.20;9.23;;;;;;;14.43;83.38;98155.88;1855356;77;20981;-75
2021/07/11 02:20:00;;;;;;;10.63;7.78;;;;;;;14.46;83.71;98151.24;1855811;77;20881;-74
2021/07/11 02:22:27;;;;;;;11.33;8.70;;;;;;;14.42;83.47;98148.81;1855492;77;20934;-74
2021/07/11 02:24:53;;;;;;;9.53;8.08;;;;;;;14.41;83.16;98154.83;1855769;77;21988;-74
2021/07/11 02:27:22;;;;;;;9.28;6.83;;;;;;;14.32;83.72;98150.63;1855306;77;20894;-74
2021/07/11 02:29:52;;;;;;;12.58;8.18;;;;;;;14.33;83.18;98147.34;1855866;77;20949;-75
2021/07/11 02:32:15;;;;;;;9.80;8.28;;;;;;;14.38;82.80;98141.81;1827494;77;20938;-75
2021/07/11 02:34:45;;;;;;;12.78;8.15;;;;;;;14.41;82.76;98145.28;1855619;77;20952;-73
2021/07/11 02:37:14;;;;;;;12.50;7.55;;;;;;;14.33;84.04;98144.62;1855507;77;21983;-74
2021/07/11 02:39:42;;;;;;;;;;;;;;;14.33;84.10;98147.34;1858350;77;21430;-75
2021/07/11 02:42:09;;;;;;;11.60;6.80;;;;;;;14.32;83.53;98143.81;1855434;77;20076;-74
2021/07/11 02:44:36;;;;;;;14.30;7.85;;;;;;;14.28;82.94;98152.34;1827504;77;20946;-74
2021/07/11 02:47:09;;;;;;;15.53;7.72;;;;;;;14.17;83.16;98152.81;1855529;77;21024;-74
2021/07/11 02:49:35;;;;;;;16.42;9.20;;;;;;;14.13;84.72;98162.16;1855785;77;21386;-73
2021/07/11 02:52:03;;;;;;;9.65;7.92;;;;;;;14.14;84.74;98152.06;1855553;77;20962;-74
2021/07/11 02:54:34;;;;;;;9.68;7.92;;;;;;;14.17;84.14;98152.81;1855941;77;20989;-75
2021/07/11 02:57:03;;;;;;;9.50;7.28;;;;;;;14.19;83.12;98152.79;1855519;77;21358;-74
2021/07/11 02:59:29;;;;;;;14.60;8.30;;;;;;;14.18;85.21;98150.34;1855816;77;21436;-75
2021/07/11 03:01:54;;;;;;;10.35;7.47;;;;;;;14.21;84.39;98151.13;1855527;77;21967;-73
2021/07/11 03:04:21;;;;;;;9.08;7.30;;;;;;;14.23;84.07;98153.80;1855788;77;20850;-74
2021/07/11 03:06:47;;;;;;;9.33;6.58;;;;;;;14.24;83.63;98151.88;1855755;77;20898;-74
2021/07/11 03:09:13;;;;;;;11.53;7.70;;;;;;;14.19;83.26;98155.52;1855768;77;21026;-73
2021/07/11 03:11:40;;;;;;;9.05;6.85;;;;;;;14.18;83.05;98148.42;1855582;77;20901;-75
2021/07/11 03:14:10;;;;;;;8.03;6.97;;;;;;;14.15;83.82;98152.31;1827445;77;21382;-75
2021/07/11 03:16:40;;;;;;;10.45;7.12;;;;;;;14.15;84.08;98137.33;1827236;77;20961;-73
2021/07/11 03:19:05;;;;;;;11.60;7.47;;;;;;;14.22;83.70;98140.47;1855856;77;20938;-74
2021/07/11 03:21:31;;;;;;;8.63;6.62;;;;;;;14.32;83.65;98142.45;1855906;77;20847;-74
2021/07/11 03:23:57;;;;;;;7.75;6.45;;;;;;;14.38;83.32;98145.90;1856022;77;20947;-75
2021/07/11 03:26:24;;;;;;;8.98;7.20;;;;;;;14.38;82.57;98148.63;1855780;77;21023;-74
2021/07/11 03:28:50;;;;;;;12.37;8.18;;;;;;;14.34;82.34;98154.41;1855805;77;20993;-74
2021/07/11 03:31:17;;;;;;;11.03;8.35;;;;;;;14.33;82.26;98153.60;1855776;77;21060;-75
2021/07/11 03:33:47;;;;;;;10.72;8.13;;;;;;;14.35;81.94;98147.29;1856029;77;21044;-74
2021/07/11 03:36:15;;;;;;;10.03;7.50;;;;;;;14.41;81.72;98150.73;1855574;77;21387;-74
2021/07/11 03:38:44;;;;;;;10.90;7.35;;;;;;;14.48;82.68;98151.74;1856441;77;21040;-74
2021/07/11 03:41:15;;;;;;;8.28;7.47;;;;;;;14.53;82.30;98148.37;1849679;77;20875;-75
2021/07/11 03:43:41;;;;;;;10.68;6.87;;;;;;;14.60;82.31;98147.95;1791906;80;20987;-74
2021/07/11 03:46:09;;;;;;;10.25;6.75;;;;;;;14.63;82.66;98151.45;1791603;80;21374;-73
2021/07/11 03:48:55;;;;;;;10.48;7.65;;;;;;;14.69;81.92;98148.86;1791794;80;20857;-73
2021/07/11 03:51:23;;;;;;;10.45;7.83;;;;;;;14.82;81.63;98146.70;1791789;80;21125;-73
2021/07/11 03:53:49;;;;;;;9.97;7.60;;;;;;;14.86;81.38;98140.06;1791888;80;20952;-75
2021/07/11 03:56:15;;;;;;;11.12;7.78;;;;;;;14.99;81.15;98139.25;1791696;80;20864;-74
2021/07/11 03:58:41;;;;;;;9.93;7.78;;;;;;;15.15;80.82;98139.73;1791795;80;20912;-75
2021/07/11 04:01:07;;;;;;;12.93;8.90;;;;;;;15.30;80.42;98139.97;1791711;80;20893;-74
2021/07/11 04:03:40;;;;;;;11.30;7.85;;;;;;;15.33;80.23;98138.78;1791866;80;21177;-74
2021/07/11 04:06:12;;;;;;;10.88;9.63;;;;;;;15.30;80.22;98131.78;1765939;80;20917;-74
2021/07/11 04:08:38;;;;;;;11.48;8.25;;;;;;;15.34;79.77;98139.59;1791645;80;21520;-73
2021/07/11 04:11:04;;;;;;;9.53;6.92;;;;;;;15.38;80.06;98138.69;1791734;80;20961;-73
2021/07/11 04:13:32;;;;;;;9.75;7.67;;;;;;;15.47;80.14;98139.56;1791534;80;20841;-73
2021/07/11 04:16:02;;;;;;;11.25;7.42;;;;;;;15.64;79.57;98136.20;1791970;80;21685;-75
2021/07/11 04:18:28;;;;;;;14.30;8.35;;;;;;;15.83;79.50;98140.10;1791343;80;20866;-74
2021/07/11 04:20:55;;;;;;;13.72;8.10;;;;;;;16.04;79.21;98141.20;1791687;80;20888;-74
2021/07/11 04:23:23;;;;;;;9.93;7.58;;;;;;;16.25;78.90;98128.38;1791559;80;21031;-74
2021/07/11 04:25:49;;;;;;;10.50;8.00;;;;;;;16.38;78.16;98128.83;1765453;80;21291;-73
2021/07/11 04:28:15;;;;;;;12.55;9.08;;;;;;;16.42;77.82;98127.66;1791553;80;21295;-73
2021/07/11 04:30:41;;;;;;;11.28;9.55;;;;;;;16.55;77.78;98129.47;1792171;80;20920;-74
2021/07/11 04:33:07;;;;;;;12.05;9.70;;;;;;;16.74;77.53;98126.51;1791537;80;20868;-73
2021/07/11 04:35:33;;;;;;;9.78;8.78;;;;;;;16.82;77.06;98127.09;1765015;80;20948;-74
2021/07/11 04:37:59;;;;;;;13.32;9.70;;;;;;;16.86;76.89;98133.56;1791599;80;20865;-74
2021/07/11 04:40:24;;;;;;;13.83;10.20;;;;;;;17.04;76.77;98129.73;1791747;80;21988;-73
2021/07/11 04:42:50;;;;;;;13.45;9.65;;;;;;;17.14;76.51;98129.99;1806169;78;20831;-73
2021/07/11 04:45:17;;;;;;;10.82;9.25;;;;;;;17.20;76.00;98125.42;1793768;80;20920;-74
2021/07/11 04:47:43;;;;;;;11.78;10.35;;;;;;;17.12;76.19;98124.04;1793463;79;21017;-73
2021/07/11 04:50:10;;;;;;;13.90;10.80;;;;;;;17.20;76.42;98121.31;1793708;80;20861;-73
2021/07/11 04:52:40;;;;;;;12.60;10.80;;;;;;;17.30;76.46;98117.45;1766737;80;21748;-73
2021/07/11 04:55:09;;;;;;;11.55;10.28;;;;;;;17.38;76.22;98126.24;1793492;80;21457;-73
2021/07/11 04:57:36;;;;;;;10.20;9.20;;;;;;;17.50;76.12;98122.85;1792764;79;20886;-75
2021/07/11 05:00:08;;;;;;;9.75;8.78;;;;;;;17.67;75.70;98110.52;1793558;80;20993;-74
2021/07/11 05:02:34;;;;;;;9.63;8.30;;;;;;;17.83;75.47;98107.31;1793326;79;20941;-75
2021/07/11 05:05:01;;;;;;;12.33;8.88;;;;;;;18.01;75.15;98111.06;1793516;79;21189;-74
2021/07/11 05:07:27;;;;;;;11.12;9.65;;;;;;;18.21;74.90;98104.66;1793259;79;21334;-75
2021/07/11 05:09:53;;;;;;;9.95;8.95;;;;;;;18.43;74.37;98104.41;1793640;80;20849;-74
2021/07/11 05:12:19;;;;;;;8.95;8.00;;;;;;;18.58;72.88;98106.60;1793442;79;20850;-74
2021/07/11 05:14:44;;;;;;;11.10;9.00;;;;;;;18.77;73.20;98108.16;1793706;80;20944;-75
2021/07/11 05:17:10;;;;;;;19.45;9.38;;;;;;;18.99;72.96;98112.00;1793486;79;21133;-74
2021/07/11 05:19:37;;;;;;;9.83;8.70;;;;;;;19.11;72.10;98109.33;1793553;80;20885;-74
2021/07/11 05:22:04;;;;;;;11.03;8.43;;;;;;;19.11;72.38;98109.33;1793676;79;20961;-75
2021/07/11 05:24:29;;;;;;;10.28;6.97;;;;;;;19.21;72.14;98112.81;1793512;80;20957;-74
2021/07/11 05:26:55;;;;;;;9.95;8.95;;;;;;;19.41;71.88;98115.59;1793505;79;20849;-75
2021/07/11 05:29:21;;;;;;;11.75;8.43;;;;;;;19.49;71.63;98113.91;1793576;79;21981;-75
2021/07/11 05:31:47;;;;;;;10.53;8.83;;;;;;;19.58;71.17;98108.38;1793293;79;20938;-74
2021/07/11 05:34:13;;;;;;;12.37;8.50;;;;;;;19.68;70.92;98102.46;1793638;80;20992;-75
2021/07/11 05:36:39;;;;;;;11.15;8.33;;;;;;;19.71;70.75;98098.45;1793386;79;20904;-74
2021/07/11 05:39:05;;;;;;;9.00;8.20;;;;;;;19.86;70.74;98097.03;1793827;79;20936;-74
2021/07/11 05:41:31;;;;;;;9.93;8.93;;;;;;;20.00;70.83;98097.55;1793408;79;21020;-74
2021/07/11 05:43:59;;;;;;;11.95;8.25;;;;;;;20.20;70.18;98096.44;1795445;80;20956;-75
2021/07/11 05:46:26;;;;;;;9.63;7.53;;;;;;;20.28;69.24;98094.97;1795707;79;20973;-74
2021/07/11 05:48:52;;;;;;;8.15;6.85;;;;;;;20.32;69.02;98093.69;1764693;80;20984;-74
2021/07/11 05:51:18;;;;;;;8.98;7.90;;;;;;;20.25;69.69;98099.78;1795796;79;20928;-74
2021/07/11 05:53:44;;;;;;;9.18;8.18;;;;;;;20.48;69.21;98097.42;1795524;80;21875;-74
2021/07/11 05:56:10;;;;;;;11.10;9.28;;;;;;;20.57;69.14;98104.19;1795612;79;20865;-75
2021/07/11 05:58:36;;;;;;;12.20;8.70;;;;;;;20.79;68.85;98098.81;1795695;80;20979;-74
2021/07/11 06:01:02;;;;;;;10.30;7.80;;;;;;;20.87;68.06;98089.64;1795412;79;21448;-74
2021/07/11 06:03:28;;;;;;;8.08;7.25;;;;;;;21.08;68.13;98091.66;1795522;80;20846;-75
2021/07/11 06:05:54;;;;;;;8.98;7.42;;;;;;;21.28;68.08;98083.06;1795769;79;21414;-74
2021/07/11 06:08:20;;;;;;;7.90;7.10;;;;;;;21.49;67.29;98084.83;1795459;80;20850;-74
2021/07/11 06:10:46;;;;;;;7.75;6.70;;;;;;;21.60;66.73;98087.31;1796231;80;20971;-74
2021/07/11 06:13:12;;;;;;;9.18;7.35;;;;;;;21.82;66.69;98088.15;1795540;79;20972;-74
2021/07/11 06:15:38;;;;;;;9.63;6.35;;;;;;;21.97;66.41;98083.83;1795825;80;20842;-74
2021/07/11 06:18:04;;;;;;;7.40;6.50;;;;;;;21.96;65.65;98079.44;1795482;79;21280;-74
2021/07/11 06:20:32;;;;;;;6.80;6.20;;;;;;;22.10;65.55;98079.06;1795794;80;20904;-75
2021/07/11 06:22:57;;;;;;;7.60;6.60;;;;;;;22.15;64.85;98073.30;1795879;79;20957;-75
2021/07/11 06:25:23;;;;;;;7.72;5.72;;;;;;;22.29;65.25;98075.61;1795816;80;20960;-75
2021/07/11 06:27:49;;;;;;;6.10;5.60;;;;;;;22.50;65.32;98072.82;1795601;79;20854;-75
2021/07/11 06:30:17;;;;;;;7.70;5.70;;;;;;;22.77;64.88;98072.48;1796009;80;21306;-75
2021/07/11 06:32:44;;;;;;;7.90;5.72;;;;;;;22.98;64.58;98068.05;1795379;79;20941;-75
2021/07/11 06:35:13;;;;;;;7.85;5.80;;;;;;;23.14;63.25;98065.83;1795637;80;20961;-75
2021/07/11 06:37:39;;;;;;;7.12;5.95;;;;;;;23.34;64.07;98071.04;1795412;79;21020;-74
2021/07/11 06:40:06;;;;;;;6.33;5.72;;;;;;;23.53;63.20;98070.25;1795795;80;21071;-75
2021/07/11 06:42:32;;;;;;;7.75;5.35;;;;;;;23.55;61.14;98064.34;1795555;79;21042;-74
2021/07/11 06:44:58;;;;;;;8.40;5.62;;;;;;;23.60;62.23;98057.98;1795789;80;20999;-74
2021/07/11 06:47:24;;;;;;;7.80;5.80;;;;;;;23.44;61.86;98046.74;1795580;79;20877;-75
2021/07/11 06:49:49;;;;;;;7.65;5.55;;;;;;;23.52;62.16;98045.73;1795906;80;20869;-75
2021/07/11 06:52:15;;;;;;;7.95;6.30;;;;;;;23.61;62.43;98052.66;1795640;79;21020;-75
2021/07/11 06:54:41;;;;;;;8.63;6.33;;;;;;;23.91;62.80;98046.50;1796039;80;21151;-75
2021/07/11 06:57:07;;;;;;;6.70;5.83;;;;;;;24.15;62.16;98040.63;1795745;79;20846;-75
2021/07/11 06:59:33;;;;;;;8.28;6.10;;;;;;;24.29;61.38;98046.20;1795971;80;21530;-75
2021/07/11 07:01:59;;;;;;;8.25;5.67;;;;;;;24.53;61.32;98043.67;1795841;79;20885;-75
2021/07/11 07:04:25;;;;;;;6.65;5.97;;;;;;;24.64;60.53;98047.41;1795574;80;20989;-74
2021/07/11 07:06:51;;;;;;;5.83;5.30;;;;;;;24.66;60.64;98045.86;1795853;79;21996;-74
2021/07/11 07:09:17;;;;;;;5.90;5.30;;;;;;;24.75;60.44;98039.47;1795944;80;20942;-75
2021/07/11 07:11:43;;;;;;;10.58;6.85;;;;;;;24.94;59.67;98040.52;1795871;79;21396;-75
2021/07/11 07:14:09;;;;;;;8.73;5.87;;;;;;;25.11;59.93;98041.39;1795606;80;20866;-74
2021/07/11 07:16:35;;;;;;;6.83;5.53;;;;;;;25.14;59.23;98039.27;1795855;79;20869;-75
2021/07/11 07:19:01;;;;;;;7.22;5.97;;;;;;;25.28;60.05;98044.98;1795666;80;21314;-74
2021/07/11 07:21:27;;;;;;;6.65;5.95;;;;;;;25.46;59.49;98049.97;1795750;79;21479;-76
2021/07/11 07:23:53;;;;;;;5.72;5.22;;;;;;;25.82;59.04;98048.46;1795782;80;20817;-75
2021/07/11 07:26:19;;;;;;;7.87;6.00;;;;;;;25.87;56.76;98046.12;1795790;79;20881;-75
2021/07/11 07:28:44;;;;;;;9.23;6.00;;;;;;;26.06;58.33;98042.37;1795804;80;21614;-75
2021/07/11 07:31:10;;;;;;;10.53;6.40;;;;;;;26.31;58.01;98037.03;1795999;79;21301;-75
2021/07/11 07:33:36;;;;;;;8.23;5.55;;;;;;;26.34;57.69;98036.88;1795710;80;20912;-75
2021/07/11 07:36:03;;;;;;;8.05;6.10;;;;;;;26.52;57.47;98036.47;1795954;79;21501;-75
2021/07/11 07:38:28;;;;;;;6.03;5.03;;;;;;;26.77;56.35;98042.22;1795654;80;20941;-75
2021/07/11 07:40:54;;;;;;;6.35;5.67;;;;;;;26.91;55.55;98040.90;1795794;79;20960;-75
2021/07/11 07:43:20;;;;;;;7.17;4.95;;;;;;;27.48;55.10;98034.29;1795619;80;21336;-75
2021/07/11 07:45:46;;;;;;;5.97;5.42;;;;;;;27.90;53.46;98047.39;1795779;80;20893;-75
2021/07/11 07:48:12;;;;;;;7.30;5.60;;;;;;;28.09;53.15;98039.47;1795632;79;20952;-75
2021/07/11 07:50:38;;;;;;;5.53;4.95;;;;;;;27.95;52.66;98040.84;1795949;80;20955;-75
2021/07/11 07:53:05;;;;;;;5.65;4.90;;;;;;;27.81;52.94;98033.84;1795960;79;20921;-75
2021/07/11 07:55:32;;;;;;;7.15;5.20;;;;;;;27.78;53.24;98036.03;1795797;80;21953;-75
2021/07/11 07:57:59;;;;;;;7.50;5.22;;;;;;;27.59;53.57;98041.28;1795692;79;20911;-75
2021/07/11 08:00:25;;;;;;;5.28;4.70;;;;;;;27.35;53.85;98040.61;1795900;80;21021;-75
2021/07/11 08:02:51;;;;;;;6.42;5.20;;;;;;;27.09;53.90;98031.34;1795867;79;20947;-75
2021/07/11 08:05:17;;;;;;;7.65;6.85;;;;;;;26.86;54.63;98035.72;1795794;80;20992;-75
2021/07/11 08:07:43;;;;;;;25.92;15.93;;;;;;;26.91;54.87;98031.77;1795722;79;21130;-75
2021/07/11 08:10:11;;;;;;;201.42;94.58;;;;;;;26.85;54.83;98038.30;1795938;80;21397;-75
2021/07/11 08:12:37;;;;;;;62.95;37.73;;;;;;;26.67;55.20;98046.52;1795570;79;20988;-74
2021/07/11 08:15:05;;;;;;;10.80;7.78;;;;;;;26.40;55.80;98032.58;1795831;80;20854;-75
2021/07/11 08:17:32;;;;;;;10.00;5.97;;;;;;;26.26;56.25;98042.95;1795723;79;25441;-75
2021/07/11 08:20:00;;;;;;;7.35;5.20;;;;;;;26.35;56.53;98042.05;1795979;80;21137;-75
2021/07/11 08:22:26;;;;;;;6.40;5.08;;;;;;;26.78;56.23;98030.50;1795597;79;20950;-75
2021/07/11 08:24:52;;;;;;;5.90;5.35;;;;;;;27.29;55.67;98025.47;1795999;80;20936;-75
2021/07/11 08:27:18;;;;;;;6.20;4.62;;;;;;;28.20;52.72;98028.93;1795997;79;21390;-75
2021/07/11 08:29:43;;;;;;;7.25;4.72;;;;;;;29.17;52.49;98028.52;1795542;80;20949;-75
2021/07/11 08:32:09;;;;;;;5.78;4.62;;;;;;;29.85;48.84;98031.66;1795760;79;21293;-75
2021/07/11 08:34:35;;;;;;;8.18;4.95;;;;;;;29.80;47.73;98037.06;1795556;80;20912;-75
2021/07/11 08:37:03;;;;;;;20.62;5.12;;;;;;;30.52;46.59;98029.83;1795633;79;20968;-76
2021/07/11 08:39:29;;;;;;;15.13;4.70;;;;;;;30.63;45.88;98028.94;1795611;80;21748;-76
2021/07/11 08:41:56;;;;;;;17.65;5.22;;;;;;;31.55;45.31;98028.63;1795750;79;20960;-76
2021/07/11 08:44:24;;;;;;;11.75;4.78;;;;;;;31.84;45.56;98028.45;1795603;79;21366;-76
2021/07/11 08:46:49;;;;;;;4.67;4.28;;;;;;;31.93;43.95;98034.94;1795904;79;20941;-76
2021/07/11 08:49:16;;;;;;;7.00;4.22;;;;;;;32.20;42.78;98028.72;1795681;80;20925;-76
2021/07/11 08:51:41;;;;;;;4.72;4.22;;;;;;;33.36;42.55;98022.96;1795751;79;20996;-76
2021/07/11 08:54:08;;;;;;;4.72;4.00;;;;;;;33.42;40.71;98028.09;1795714;80;20857;-76
2021/07/11 08:56:33;;;;;;;7.70;4.72;;;;;;;33.57;40.34;98025.93;1795739;79;21453;-76
2021/07/11 08:58:59;;;;;;;5.55;4.67;;;;;;;33.68;40.40;98037.58;1795649;80;21519;-76
2021/07/11 09:01:27;;;;;;;5.58;4.08;;;;;;;33.99;38.57;98029.69;1795731;79;20936;-76
2021/07/11 09:04:06;;;;;;;5.45;3.95;;;;;;;33.90;38.40;98024.05;1795600;80;20977;-76
2021/07/11 09:06:55;;;;;;;6.20;3.83;;;;;;;34.42;38.86;98030.29;1795669;79;20989;-77
2021/07/11 09:09:28;;;;;;;8.90;4.22;;;;;;;33.23;39.25;98030.40;1766447;80;21798;-75
2021/07/11 09:12:03;;;;;;;4.37;3.98;;;;;;;32.43;41.26;98027.20;1795564;79;20988;-77
2021/07/11 09:14:29;;;;;;;5.00;4.22;;;;;;;31.85;42.31;98030.64;1795292;80;21326;-76
2021/07/11 09:16:57;;;;;;;6.10;4.80;;;;;;;31.61;42.90;98022.11;1795870;79;20976;-76
2021/07/11 09:19:32;;;;;;;5.62;4.10;;;;;;;31.93;42.56;98025.13;1795791;80;20977;-76
2021/07/11 09:22:06;;;;;;;9.48;4.45;;;;;;;32.10;42.34;98028.28;1795578;79;21148;-75
2021/07/11 09:24:35;;;;;;;6.17;4.00;;;;;;;31.56;43.04;98026.01;1785476;80;21378;-76
2021/07/11 09:27:14;;;;;;;7.90;4.62;;;;;;;30.97;43.80;98029.84;1795457;79;20997;-76
2021/07/11 09:29:41;;;;;;;9.18;4.78;;;;;;;30.32;45.43;98030.97;1764689;80;20965;-76
2021/07/11 09:32:08;;;;;;;7.90;4.30;;;;;;;29.86;46.93;98040.23;1795742;79;20906;-76
2021/07/11 09:34:35;;;;;;;5.35;4.35;;;;;;;29.32;48.71;98036.86;1795610;80;21198;-76
2021/07/11 09:37:13;;;;;;;7.45;4.35;;;;;;;29.57;48.20;98032.00;1764254;80;21119;-76
2021/07/11 09:39:57;;;;;;;5.22;3.95;;;;;;;30.91;46.66;98028.69;1795643;80;21094;-75
2021/07/11 09:42:36;;;;;;;6.25;4.20;;;;;;;31.02;45.31;98025.78;1795516;79;20961;-75
2021/07/11 09:45:18;;;;;;;5.05;4.20;;;;;;;31.40;44.85;98028.78;1795698;80;20981;-75
2021/07/11 09:47:47;;;;;;;5.42;3.77;;;;;;;31.30;43.67;98028.92;1795583;79;21081;-75
2021/07/11 09:50:20;;;;;;;7.17;4.22;;;;;;;32.85;41.92;98030.53;1795338;80;20972;-76
2021/07/11 09:52:46;;;;;;;4.37;3.98;;;;;;;32.79;40.79;98028.80;1795404;79;21377;-76
2021/07/11 09:55:20;;;;;;;7.78;4.35;;;;;;;31.92;43.04;98037.55;1795411;80;21020;-76
2021/07/11 09:57:55;;;;;;;5.58;3.90;;;;;;;32.32;42.23;98034.39;1795779;79;20949;-75
2021/07/11 10:00:29;;;;;;;6.30;4.15;;;;;;;32.16;42.29;98033.59;1766268;80;21091;-76
2021/07/11 10:03:06;;;;;;;6.37;4.33;;;;;;;31.52;43.74;98035.04;1793892;79;20981;-75
2021/07/11 10:05:32;;;;;;;12.47;4.20;;;;;;;31.02;44.66;98029.97;1795722;80;20988;-76
2021/07/11 10:07:59;;;;;;;8.10;3.87;;;;;;;31.50;44.12;98032.66;1795462;79;20941;-77
2021/07/11 10:10:29;;;;;;;5.75;4.05;;;;;;;32.40;42.28;98021.85;1795724;80;20977;-76
2021/07/11 10:12:56;;;;;;;7.22;3.40;;;;;;;32.54;41.70;98030.62;1794419;79;21378;-76
2021/07/11 10:15:25;;;;;;;5.78;4.03;;;;;;;32.39;40.34;98028.68;1795968;80;21004;-76
2021/07/11 10:18:06;;;;;;;4.40;3.72;;;;;;;33.21;39.39;98041.27;1795582;79;21035;-76
2021/07/11 10:20:38;;;;;;;5.37;3.95;;;;;;;32.52;41.42;98050.68;1764781;80;20985;-76
2021/07/11 10:23:05;;;;;;;4.28;3.87;;;;;;;32.07;42.53;98047.95;1795630;79;20981;-77
2021/07/11 10:25:32;;;;;;;6.92;3.80;;;;;;;31.04;43.52;98050.75;1765110;80;21444;-77
2021/07/11 10:28:12;;;;;;;4.62;4.15;;;;;;;30.47;45.45;98058.21;1764440;80;20965;-76
2021/07/11 10:30:42;;;;;;;6.28;4.40;;;;;;;30.03;46.66;98054.09;1795721;80;21008;-76
2021/07/11 10:33:16;;;;;;;4.35;3.95;;;;;;;29.77;46.51;98045.66;1794274;79;21066;-75
2021/07/11 10:35:52;;;;;;;9.43;4.25;;;;;;;29.45;47.11;98042.17;1795857;80;21032;-76
2021/07/11 10:38:30;;;;;;;5.35;3.67;;;;;;;29.06;50.03;98038.92;1790821;80;42737;-75
2021/07/11 10:41:12;;;;;;;6.20;4.50;;;;;;;28.50;54.35;98029.98;1785543;79;21333;-75
2021/07/11 10:43:39;;;;;;;8.30;4.60;;;;;;;27.98;55.59;98026.72;1795295;79;21028;-76
2021/07/11 10:46:05;;;;;;;8.85;5.20;;;;;;;28.70;54.49;98025.58;1795535;79;20989;-76
2021/07/11 10:48:31;;;;;;;8.98;4.60;;;;;;;30.10;52.44;98031.55;1764715;80;21346;-75
2021/07/11 10:50:58;;;;;;;7.25;4.35;;;;;;;29.38;57.43;98039.41;1795516;79;21073;-75
2021/07/11 10:53:29;;;;;;;4.97;4.25;;;;;;;29.32;55.07;98053.00;1796150;80;20969;-75
2021/07/11 10:55:51;;;;;;;6.33;5.47;;;;;;;28.87;55.87;98051.84;1795241;80;21016;-75
2021/07/11 10:58:18;;;;;;;6.80;4.42;;;;;;;28.31;57.01;98060.43;1764375;80;21471;-75
2021/07/11 11:00:46;;;;;;;5.67;5.17;;;;;;;28.01;57.46;98062.12;1764873;80;21028;-75
2021/07/11 11:03:25;;;;;;;6.85;4.20;;;;;;;28.19;58.27;98067.73;1795511;79;21444;-76
2021/07/11 11:05:52;;;;;;;6.20;4.25;;;;;;;30.74;52.90;98077.98;1793953;80;21009;-75
2021/07/11 11:08:22;;;;;;;7.12;3.55;;;;;;;30.33;50.46;98066.69;1795349;79;21071;-75
2021/07/11 11:10:52;;;;;;;5.05;4.00;;;;;;;29.40;50.00;98064.34;1763772;80;20922;-75
2021/07/11 11:13:26;;;;;;;6.40;4.28;;;;;;;29.29;49.80;98061.36;1795601;79;20958;-75
2021/07/11 11:15:59;;;;;;;6.12;4.20;;;;;;;29.00;49.88;98064.23;1795713;80;21174;-74
2021/07/11 11:18:34;;;;;;;9.50;4.42;;;;;;;28.30;50.45;98072.77;1795634;80;20946;-75
2021/07/11 11:21:15;;;;;;;6.47;3.87;;;;;;;27.74;50.93;98077.75;1795697;79;20953;-75
2021/07/11 11:23:46;;;;;;;7.30;4.55;;;;;;;26.81;51.88;98083.33;1795655;80;20977;-74
2021/07/11 11:26:19;;;;;;;7.22;3.90;;;;;;;26.99;52.03;98095.95;1795703;79;21087;-76
2021/07/11 11:28:45;;;;;;;6.45;4.28;;;;;;;26.95;50.61;98087.61;1795422;80;21238;-75
2021/07/11 11:31:21;;;;;;;5.03;4.03;;;;;;;26.54;50.86;98092.44;1795470;79;21476;-75
2021/07/11 11:34:01;;;;;;;5.08;3.98;;;;;;;25.68;53.34;98096.81;1795634;80;20934;-75